sensor_id;sensor_type;location;lat;lon;timestamp;temperature;humidity
1377;DHT22;682;52.502;13.488;2023-04-07T00:02:27;5.20;1.00
1377;DHT22;682;52.502;13.488;2023-04-07T00:04:54;5.10;1.00
1377;DHT22;682;52.502;13.488;2023-04-07T00:07:23;5.00;1.00
1377;DHT22;682;52.502;13.488;2023-04-07T00:09:50;5.00;1.00
1377;DHT22;682;52.502;13.488;2023-04-07T00:12:18;5.00;1.00
1377;DHT22;682;52.502;13.488;2023-04-07T00:14:45;5.00;1.00
1377;DHT22;682;52.502;13.488;2023-04-07T00:17:12;4.90;1.00
1377;DHT22;682;52.502;13.488;2023-04-07T00:19:40;4.90;1.00
1377;DHT22;682;52.502;13.488;2023-04-07T00:22:08;5.00;1.00
1377;DHT22;682;52.502;13.488;2023-04-07T00:24:35;4.90;1.00
1377;DHT22;682;52.502;13.488;2023-04-07T00:27:03;4.90;1.00
1377;DHT22;682;52.502;13.488;2023-04-07T00:29:31;4.80;1.00
1377;DHT22;682;52.502;13.488;2023-04-07T00:31:58;4.90;1.00
1377;DHT22;682;52.502;13.488;2023-04-07T00:34:26;4.90;1.00
1377;DHT22;682;52.502;13.488;2023-04-07T00:36:54;4.90;1.00
1377;DHT22;682;52.502;13.488;2023-04-07T00:39:21;4.90;1.00
1377;DHT22;682;52.502;13.488;2023-04-07T00:41:48;4.90;1.00
1377;DHT22;682;52.502;13.488;2023-04-07T00:44:16;4.90;1.00
1377;DHT22;682;52.502;13.488;2023-04-07T00:46:43;4.80;1.00
1377;DHT22;682;52.502;13.488;2023-04-07T00:49:14;4.90;1.00
1377;DHT22;682;52.502;13.488;2023-04-07T00:51:42;4.90;1.00
1377;DHT22;682;52.502;13.488;2023-04-07T00:54:15;4.90;1.00
1377;DHT22;682;52.502;13.488;2023-04-07T00:56:44;5.00;1.00
1377;DHT22;682;52.502;13.488;2023-04-07T00:59:11;4.90;1.00
1377;DHT22;682;52.502;13.488;2023-04-07T01:04:27;5.00;1.00
1377;DHT22;682;52.502;13.488;2023-04-07T01:07:05;5.00;1.00
1377;DHT22;682;52.502;13.488;2023-04-07T01:09:44;5.00;1.00
1377;DHT22;682;52.502;13.488;2023-04-07T01:12:28;5.00;1.00
1377;DHT22;682;52.502;13.488;2023-04-07T01:15:08;5.00;1.00
1377;DHT22;682;52.502;13.488;2023-04-07T01:17:37;5.00;1.00
1377;DHT22;682;52.502;13.488;2023-04-07T01:20:07;5.00;1.00
1377;DHT22;682;52.502;13.488;2023-04-07T01:22:42;5.00;1.00
1377;DHT22;682;52.502;13.488;2023-04-07T01:25:30;5.00;1.00
1377;DHT22;682;52.502;13.488;2023-04-07T01:28:19;4.90;1.00
1377;DHT22;682;52.502;13.488;2023-04-07T01:30:58;4.90;1.00
1377;DHT22;682;52.502;13.488;2023-04-07T01:33:30;4.90;1.00
1377;DHT22;682;52.502;13.488;2023-04-07T01:36:00;4.90;1.00
1377;DHT22;682;52.502;13.488;2023-04-07T01:38:28;4.90;1.00
1377;DHT22;682;52.502;13.488;2023-04-07T01:41:10;4.80;1.00
1377;DHT22;682;52.502;13.488;2023-04-07T01:43:40;4.90;1.00
1377;DHT22;682;52.502;13.488;2023-04-07T01:46:09;4.90;1.00
1377;DHT22;682;52.502;13.488;2023-04-07T01:48:41;4.90;1.00
1377;DHT22;682;52.502;13.488;2023-04-07T01:51:09;4.90;1.00
1377;DHT22;682;52.502;13.488;2023-04-07T01:53:42;4.90;1.00
1377;DHT22;682;52.502;13.488;2023-04-07T01:56:11;4.90;1.00
1377;DHT22;682;52.502;13.488;2023-04-07T01:58:39;4.80;1.00
1377;DHT22;682;52.502;13.488;2023-04-07T02:01:09;4.80;1.00
1377;DHT22;682;52.502;13.488;2023-04-07T02:03:43;4.80;1.00
1377;DHT22;682;52.502;13.488;2023-04-07T02:06:21;4.80;1.00
1377;DHT22;682;52.502;13.488;2023-04-07T02:08:51;4.70;1.00
1377;DHT22;682;52.502;13.488;2023-04-07T02:11:24;4.70;1.00
1377;DHT22;682;52.502;13.488;2023-04-07T02:13:53;4.70;1.00
1377;DHT22;682;52.502;13.488;2023-04-07T02:16:24;4.60;1.00
1377;DHT22;682;52.502;13.488;2023-04-07T02:18:53;4.60;1.00
1377;DHT22;682;52.502;13.488;2023-04-07T02:21:24;4.60;1.00
1377;DHT22;682;52.502;13.488;2023-04-07T02:23:56;4.70;1.00
1377;DHT22;682;52.502;13.488;2023-04-07T02:26:32;4.60;1.00
1377;DHT22;682;52.502;13.488;2023-04-07T02:28:59;4.60;1.00
1377;DHT22;682;52.502;13.488;2023-04-07T02:31:31;4.60;1.00
1377;DHT22;682;52.502;13.488;2023-04-07T02:33:58;4.60;1.00
1377;DHT22;682;52.502;13.488;2023-04-07T02:36:29;4.60;1.00
1377;DHT22;682;52.502;13.488;2023-04-07T02:38:57;4.60;1.00
1377;DHT22;682;52.502;13.488;2023-04-07T02:41:25;4.70;1.00
1377;DHT22;682;52.502;13.488;2023-04-07T02:43:55;4.80;1.00
1377;DHT22;682;52.502;13.488;2023-04-07T02:46:24;4.80;1.00
1377;DHT22;682;52.502;13.488;2023-04-07T02:48:55;4.70;1.00
1377;DHT22;682;52.502;13.488;2023-04-07T02:51:25;4.70;1.00
1377;DHT22;682;52.502;13.488;2023-04-07T02:53:53;4.70;1.00
1377;DHT22;682;52.502;13.488;2023-04-07T02:56:23;4.70;1.00
1377;DHT22;682;52.502;13.488;2023-04-07T02:58:51;4.70;1.00
1377;DHT22;682;52.502;13.488;2023-04-07T03:01:18;4.70;1.00
1377;DHT22;682;52.502;13.488;2023-04-07T03:03:45;4.80;1.00
1377;DHT22;682;52.502;13.488;2023-04-07T03:06:16;4.80;1.00
1377;DHT22;682;52.502;13.488;2023-04-07T03:08:43;4.80;1.00
1377;DHT22;682;52.502;13.488;2023-04-07T03:11:12;4.80;1.00
1377;DHT22;682;52.502;13.488;2023-04-07T03:13:42;4.80;1.00
1377;DHT22;682;52.502;13.488;2023-04-07T03:16:09;4.80;1.00
1377;DHT22;682;52.502;13.488;2023-04-07T03:18:37;4.80;1.00
1377;DHT22;682;52.502;13.488;2023-04-07T03:21:05;4.90;1.00
1377;DHT22;682;52.502;13.488;2023-04-07T03:23:34;4.90;1.00
1377;DHT22;682;52.502;13.488;2023-04-07T03:26:03;4.90;1.00
1377;DHT22;682;52.502;13.488;2023-04-07T03:28:37;4.90;1.00
1377;DHT22;682;52.502;13.488;2023-04-07T03:31:10;5.00;1.00
1377;DHT22;682;52.502;13.488;2023-04-07T03:33:38;5.00;1.00
1377;DHT22;682;52.502;13.488;2023-04-07T03:36:07;5.00;1.00
1377;DHT22;682;52.502;13.488;2023-04-07T03:38:41;5.00;1.00
1377;DHT22;682;52.502;13.488;2023-04-07T03:41:14;5.10;1.00
1377;DHT22;682;52.502;13.488;2023-04-07T03:43:41;5.10;1.00
1377;DHT22;682;52.502;13.488;2023-04-07T03:46:08;5.10;1.00
1377;DHT22;682;52.502;13.488;2023-04-07T03:48:38;5.20;1.00
1377;DHT22;682;52.502;13.488;2023-04-07T03:51:07;5.30;1.00
1377;DHT22;682;52.502;13.488;2023-04-07T03:53:40;5.30;1.00
1377;DHT22;682;52.502;13.488;2023-04-07T03:56:07;5.20;1.00
1377;DHT22;682;52.502;13.488;2023-04-07T03:58:39;5.10;1.00
1377;DHT22;682;52.502;13.488;2023-04-07T04:04:35;5.10;1.00
1377;DHT22;682;52.502;13.488;2023-04-07T04:07:02;5.10;1.00
1377;DHT22;682;52.502;13.488;2023-04-07T04:09:30;5.10;1.00
1377;DHT22;682;52.502;13.488;2023-04-07T04:11:57;5.10;1.00
1377;DHT22;682;52.502;13.488;2023-04-07T04:14:24;5.10;1.00
1377;DHT22;682;52.502;13.488;2023-04-07T04:16:52;5.10;1.00
1377;DHT22;682;52.502;13.488;2023-04-07T04:19:19;5.10;1.00
1377;DHT22;682;52.502;13.488;2023-04-07T04:21:46;5.10;1.00
1377;DHT22;682;52.502;13.488;2023-04-07T04:24:14;5.20;1.00
1377;DHT22;682;52.502;13.488;2023-04-07T04:26:42;5.20;1.00
1377;DHT22;682;52.502;13.488;2023-04-07T04:29:09;5.20;1.00
1377;DHT22;682;52.502;13.488;2023-04-07T04:31:36;5.20;1.00
1377;DHT22;682;52.502;13.488;2023-04-07T04:34:03;5.30;1.00
1377;DHT22;682;52.502;13.488;2023-04-07T04:36:30;5.30;1.00
1377;DHT22;682;52.502;13.488;2023-04-07T04:38:57;5.20;1.00
1377;DHT22;682;52.502;13.488;2023-04-07T04:41:26;5.20;1.00
1377;DHT22;682;52.502;13.488;2023-04-07T04:43:54;5.20;1.00
1377;DHT22;682;52.502;13.488;2023-04-07T04:46:21;5.20;1.00
1377;DHT22;682;52.502;13.488;2023-04-07T04:48:48;5.20;1.00
1377;DHT22;682;52.502;13.488;2023-04-07T04:51:16;5.20;1.00
1377;DHT22;682;52.502;13.488;2023-04-07T04:53:43;5.10;1.00
1377;DHT22;682;52.502;13.488;2023-04-07T04:56:10;5.20;1.00
1377;DHT22;682;52.502;13.488;2023-04-07T04:58:38;5.20;1.00
1377;DHT22;682;52.502;13.488;2023-04-07T05:01:08;5.20;1.00
1377;DHT22;682;52.502;13.488;2023-04-07T05:03:35;5.30;1.00
1377;DHT22;682;52.502;13.488;2023-04-07T05:06:01;5.30;1.00
1377;DHT22;682;52.502;13.488;2023-04-07T05:08:28;5.30;1.00
1377;DHT22;682;52.502;13.488;2023-04-07T05:10:56;5.30;1.00
1377;DHT22;682;52.502;13.488;2023-04-07T05:13:23;5.30;1.00
1377;DHT22;682;52.502;13.488;2023-04-07T05:15:51;5.30;1.00
1377;DHT22;682;52.502;13.488;2023-04-07T05:18:19;5.40;1.00
1377;DHT22;682;52.502;13.488;2023-04-07T05:20:47;5.40;1.00
1377;DHT22;682;52.502;13.488;2023-04-07T05:23:14;5.40;1.00
1377;DHT22;682;52.502;13.488;2023-04-07T05:25:41;5.40;1.00
1377;DHT22;682;52.502;13.488;2023-04-07T05:28:08;5.50;1.00
1377;DHT22;682;52.502;13.488;2023-04-07T05:30:35;5.40;1.00
1377;DHT22;682;52.502;13.488;2023-04-07T05:33:02;5.40;1.00
1377;DHT22;682;52.502;13.488;2023-04-07T05:35:30;5.30;1.00
1377;DHT22;682;52.502;13.488;2023-04-07T05:37:57;5.40;1.00
1377;DHT22;682;52.502;13.488;2023-04-07T05:40:25;5.40;1.00
1377;DHT22;682;52.502;13.488;2023-04-07T05:42:52;5.50;1.00
1377;DHT22;682;52.502;13.488;2023-04-07T05:45:19;5.60;1.00
1377;DHT22;682;52.502;13.488;2023-04-07T05:47:46;5.60;1.00
1377;DHT22;682;52.502;13.488;2023-04-07T05:50:14;5.70;1.00
1377;DHT22;682;52.502;13.488;2023-04-07T05:52:45;5.80;1.00
1377;DHT22;682;52.502;13.488;2023-04-07T05:55:12;5.90;1.00
1377;DHT22;682;52.502;13.488;2023-04-07T05:57:39;5.90;1.00
1377;DHT22;682;52.502;13.488;2023-04-07T06:00:07;6.00;1.00
1377;DHT22;682;52.502;13.488;2023-04-07T06:02:35;6.10;1.00
1377;DHT22;682;52.502;13.488;2023-04-07T06:05:04;6.30;1.00
1377;DHT22;682;52.502;13.488;2023-04-07T06:07:31;6.40;1.00
1377;DHT22;682;52.502;13.488;2023-04-07T06:10:01;6.50;1.00
1377;DHT22;682;52.502;13.488;2023-04-07T06:12:28;6.60;1.00
1377;DHT22;682;52.502;13.488;2023-04-07T06:14:55;6.70;1.00
1377;DHT22;682;52.502;13.488;2023-04-07T06:17:22;6.70;1.00
1377;DHT22;682;52.502;13.488;2023-04-07T06:19:50;6.70;1.00
1377;DHT22;682;52.502;13.488;2023-04-07T06:22:16;6.60;1.00
1377;DHT22;682;52.502;13.488;2023-04-07T06:24:43;6.70;1.00
1377;DHT22;682;52.502;13.488;2023-04-07T06:27:12;6.70;1.00
1377;DHT22;682;52.502;13.488;2023-04-07T06:29:39;6.60;1.00
1377;DHT22;682;52.502;13.488;2023-04-07T06:32:06;6.60;1.00
1377;DHT22;682;52.502;13.488;2023-04-07T06:34:34;6.60;1.00
1377;DHT22;682;52.502;13.488;2023-04-07T06:37:01;6.60;1.00
1377;DHT22;682;52.502;13.488;2023-04-07T06:39:30;6.50;1.00
1377;DHT22;682;52.502;13.488;2023-04-07T06:41:57;6.50;1.00
1377;DHT22;682;52.502;13.488;2023-04-07T06:44:25;6.40;1.00
1377;DHT22;682;52.502;13.488;2023-04-07T06:46:52;6.50;1.00
1377;DHT22;682;52.502;13.488;2023-04-07T06:49:20;6.50;1.00
1377;DHT22;682;52.502;13.488;2023-04-07T06:51:47;6.70;1.00
1377;DHT22;682;52.502;13.488;2023-04-07T06:54:13;6.70;1.00
1377;DHT22;682;52.502;13.488;2023-04-07T06:56:41;6.70;1.00
1377;DHT22;682;52.502;13.488;2023-04-07T06:59:09;6.80;1.00
1377;DHT22;682;52.502;13.488;2023-04-07T07:01:37;6.90;1.00
1377;DHT22;682;52.502;13.488;2023-04-07T07:04:04;7.00;1.00
1377;DHT22;682;52.502;13.488;2023-04-07T07:06:31;7.10;1.00
1377;DHT22;682;52.502;13.488;2023-04-07T07:08:58;7.20;1.00
1377;DHT22;682;52.502;13.488;2023-04-07T07:11:27;7.40;1.00
1377;DHT22;682;52.502;13.488;2023-04-07T07:13:54;7.50;1.00
1377;DHT22;682;52.502;13.488;2023-04-07T07:16:21;7.60;1.00
1377;DHT22;682;52.502;13.488;2023-04-07T07:18:50;7.60;1.00
1377;DHT22;682;52.502;13.488;2023-04-07T07:21:18;7.70;1.00
1377;DHT22;682;52.502;13.488;2023-04-07T07:23:45;7.90;1.00
1377;DHT22;682;52.502;13.488;2023-04-07T07:26:12;8.20;1.00
1377;DHT22;682;52.502;13.488;2023-04-07T07:28:39;8.40;1.00
1377;DHT22;682;52.502;13.488;2023-04-07T07:31:08;8.60;1.00
1377;DHT22;682;52.502;13.488;2023-04-07T07:33:40;8.70;1.00
1377;DHT22;682;52.502;13.488;2023-04-07T07:36:10;8.80;1.00
1377;DHT22;682;52.502;13.488;2023-04-07T07:38:38;9.10;1.00
1377;DHT22;682;52.502;13.488;2023-04-07T07:41:05;9.20;1.00
1377;DHT22;682;52.502;13.488;2023-04-07T07:43:32;9.30;1.00
1377;DHT22;682;52.502;13.488;2023-04-07T07:45:59;9.10;1.00
1377;DHT22;682;52.502;13.488;2023-04-07T07:48:26;9.30;1.00
1377;DHT22;682;52.502;13.488;2023-04-07T07:50:53;9.40;1.00
1377;DHT22;682;52.502;13.488;2023-04-07T07:53:23;9.50;1.00
1377;DHT22;682;52.502;13.488;2023-04-07T07:55:50;9.60;1.00
1377;DHT22;682;52.502;13.488;2023-04-07T07:58:17;9.70;1.00
1377;DHT22;682;52.502;13.488;2023-04-07T08:00:44;9.70;1.00
1377;DHT22;682;52.502;13.488;2023-04-07T08:03:11;9.90;1.00
1377;DHT22;682;52.502;13.488;2023-04-07T08:05:38;9.90;1.00
1377;DHT22;682;52.502;13.488;2023-04-07T08:08:05;10.10;1.00
1377;DHT22;682;52.502;13.488;2023-04-07T08:10:34;10.20;1.00
1377;DHT22;682;52.502;13.488;2023-04-07T08:13:01;10.30;1.00
1377;DHT22;682;52.502;13.488;2023-04-07T08:15:29;10.40;1.00
1377;DHT22;682;52.502;13.488;2023-04-07T08:17:57;10.70;1.00
1377;DHT22;682;52.502;13.488;2023-04-07T08:20:25;10.70;1.00
1377;DHT22;682;52.502;13.488;2023-04-07T08:22:52;11.10;1.00
1377;DHT22;682;52.502;13.488;2023-04-07T08:25:19;11.20;1.00
1377;DHT22;682;52.502;13.488;2023-04-07T08:27:47;11.30;1.00
1377;DHT22;682;52.502;13.488;2023-04-07T08:30:14;11.50;1.00
1377;DHT22;682;52.502;13.488;2023-04-07T08:32:43;11.40;1.00
1377;DHT22;682;52.502;13.488;2023-04-07T08:35:11;11.50;1.00
1377;DHT22;682;52.502;13.488;2023-04-07T08:37:38;11.50;1.00
1377;DHT22;682;52.502;13.488;2023-04-07T08:40:06;11.40;1.00
1377;DHT22;682;52.502;13.488;2023-04-07T08:42:34;11.40;1.00
1377;DHT22;682;52.502;13.488;2023-04-07T08:45:06;11.40;1.00
1377;DHT22;682;52.502;13.488;2023-04-07T08:47:39;11.20;1.00
1377;DHT22;682;52.502;13.488;2023-04-07T08:50:08;11.30;1.00
1377;DHT22;682;52.502;13.488;2023-04-07T08:52:41;11.10;1.00
1377;DHT22;682;52.502;13.488;2023-04-07T08:55:10;11.30;1.00
1377;DHT22;682;52.502;13.488;2023-04-07T08:57:37;11.20;1.00
1377;DHT22;682;52.502;13.488;2023-04-07T09:00:07;11.10;1.00
1377;DHT22;682;52.502;13.488;2023-04-07T09:02:37;11.10;1.00
1377;DHT22;682;52.502;13.488;2023-04-07T09:05:05;11.10;1.00
1377;DHT22;682;52.502;13.488;2023-04-07T09:07:34;11.00;1.00
1377;DHT22;682;52.502;13.488;2023-04-07T09:10:02;10.80;1.00
1377;DHT22;682;52.502;13.488;2023-04-07T09:12:32;10.70;1.00
1377;DHT22;682;52.502;13.488;2023-04-07T09:15:07;10.50;1.00
1377;DHT22;682;52.502;13.488;2023-04-07T09:17:35;10.20;1.00
1377;DHT22;682;52.502;13.488;2023-04-07T09:20:08;10.20;1.00
1377;DHT22;682;52.502;13.488;2023-04-07T09:22:38;10.10;1.00
1377;DHT22;682;52.502;13.488;2023-04-07T09:25:12;10.20;1.00
1377;DHT22;682;52.502;13.488;2023-04-07T09:27:57;10.10;1.00
1377;DHT22;682;52.502;13.488;2023-04-07T09:30:26;10.00;1.00
1377;DHT22;682;52.502;13.488;2023-04-07T09:32:53;9.90;1.00
1377;DHT22;682;52.502;13.488;2023-04-07T09:35:21;9.90;1.00
1377;DHT22;682;52.502;13.488;2023-04-07T09:38:03;9.90;1.00
1377;DHT22;682;52.502;13.488;2023-04-07T09:40:30;9.90;1.00
1377;DHT22;682;52.502;13.488;2023-04-07T09:42:58;9.90;1.00
1377;DHT22;682;52.502;13.488;2023-04-07T09:45:28;9.90;1.00
1377;DHT22;682;52.502;13.488;2023-04-07T09:47:57;9.80;1.00
1377;DHT22;682;52.502;13.488;2023-04-07T09:50:33;9.90;1.00
1377;DHT22;682;52.502;13.488;2023-04-07T09:53:01;9.80;1.00
1377;DHT22;682;52.502;13.488;2023-04-07T09:55:29;9.80;1.00
1377;DHT22;682;52.502;13.488;2023-04-07T09:57:56;9.80;1.00
1377;DHT22;682;52.502;13.488;2023-04-07T10:00:24;9.80;1.00
1377;DHT22;682;52.502;13.488;2023-04-07T10:02:53;9.90;1.00
1377;DHT22;682;52.502;13.488;2023-04-07T10:05:21;9.90;1.00
1377;DHT22;682;52.502;13.488;2023-04-07T10:07:49;9.90;1.00
1377;DHT22;682;52.502;13.488;2023-04-07T10:10:17;9.80;1.00
1377;DHT22;682;52.502;13.488;2023-04-07T10:12:45;9.70;1.00
1377;DHT22;682;52.502;13.488;2023-04-07T10:15:13;9.70;1.00
1377;DHT22;682;52.502;13.488;2023-04-07T10:17:44;9.60;1.00
1377;DHT22;682;52.502;13.488;2023-04-07T10:20:16;9.50;1.00
1377;DHT22;682;52.502;13.488;2023-04-07T10:22:47;9.50;1.00
1377;DHT22;682;52.502;13.488;2023-04-07T10:25:26;9.50;1.00
1377;DHT22;682;52.502;13.488;2023-04-07T10:27:59;9.50;1.00
1377;DHT22;682;52.502;13.488;2023-04-07T10:30:31;9.50;1.00
1377;DHT22;682;52.502;13.488;2023-04-07T10:32:59;9.50;1.00
1377;DHT22;682;52.502;13.488;2023-04-07T10:35:28;9.70;1.00
1377;DHT22;682;52.502;13.488;2023-04-07T10:38:17;9.80;1.00
1377;DHT22;682;52.502;13.488;2023-04-07T10:40:44;10.00;1.00
1377;DHT22;682;52.502;13.488;2023-04-07T10:43:11;10.10;1.00
1377;DHT22;682;52.502;13.488;2023-04-07T10:45:55;10.20;1.00
1377;DHT22;682;52.502;13.488;2023-04-07T10:48:25;10.30;1.00
1377;DHT22;682;52.502;13.488;2023-04-07T10:51:23;10.20;1.00
1377;DHT22;682;52.502;13.488;2023-04-07T10:54:17;10.30;1.00
1377;DHT22;682;52.502;13.488;2023-04-07T10:57:13;10.30;1.00
1377;DHT22;682;52.502;13.488;2023-04-07T11:02:33;10.20;1.00
1377;DHT22;682;52.502;13.488;2023-04-07T11:05:19;10.10;1.00
1377;DHT22;682;52.502;13.488;2023-04-07T11:07:52;10.00;1.00
1377;DHT22;682;52.502;13.488;2023-04-07T11:10:27;9.70;1.00
1377;DHT22;682;52.502;13.488;2023-04-07T11:13:01;9.60;1.00
1377;DHT22;682;52.502;13.488;2023-04-07T11:15:32;9.60;1.00
1377;DHT22;682;52.502;13.488;2023-04-07T11:18:12;9.40;1.00
1377;DHT22;682;52.502;13.488;2023-04-07T11:20:47;9.40;1.00
1377;DHT22;682;52.502;13.488;2023-04-07T11:23:17;9.50;1.00
1377;DHT22;682;52.502;13.488;2023-04-07T11:25:46;9.60;1.00
1377;DHT22;682;52.502;13.488;2023-04-07T11:28:15;9.70;1.00
1377;DHT22;682;52.502;13.488;2023-04-07T11:30:47;9.70;1.00
1377;DHT22;682;52.502;13.488;2023-04-07T11:33:17;9.50;1.00
1377;DHT22;682;52.502;13.488;2023-04-07T11:35:52;9.40;1.00
1377;DHT22;682;52.502;13.488;2023-04-07T11:38:25;9.30;1.00
1377;DHT22;682;52.502;13.488;2023-04-07T11:40:53;9.30;1.00
1377;DHT22;682;52.502;13.488;2023-04-07T11:43:21;9.10;1.00
1377;DHT22;682;52.502;13.488;2023-04-07T11:46:08;8.90;1.00
1377;DHT22;682;52.502;13.488;2023-04-07T11:48:37;8.70;1.00
1377;DHT22;682;52.502;13.488;2023-04-07T11:51:05;8.70;1.00
1377;DHT22;682;52.502;13.488;2023-04-07T11:53:36;8.60;1.00
1377;DHT22;682;52.502;13.488;2023-04-07T11:56:06;8.70;1.00
1377;DHT22;682;52.502;13.488;2023-04-07T11:58:35;8.60;1.00
1377;DHT22;682;52.502;13.488;2023-04-07T12:01:03;8.60;1.00
1377;DHT22;682;52.502;13.488;2023-04-07T12:03:36;8.50;1.00
1377;DHT22;682;52.502;13.488;2023-04-07T12:06:04;8.70;1.00
1377;DHT22;682;52.502;13.488;2023-04-07T12:08:40;8.80;1.00
1377;DHT22;682;52.502;13.488;2023-04-07T12:11:08;8.80;1.00
1377;DHT22;682;52.502;13.488;2023-04-07T12:13:36;8.70;1.00
1377;DHT22;682;52.502;13.488;2023-04-07T12:16:10;8.70;1.00
1377;DHT22;682;52.502;13.488;2023-04-07T12:18:39;8.60;1.00
1377;DHT22;682;52.502;13.488;2023-04-07T12:21:06;8.60;1.00
1377;DHT22;682;52.502;13.488;2023-04-07T12:23:34;8.50;1.00
1377;DHT22;682;52.502;13.488;2023-04-07T12:26:02;8.40;1.00
1377;DHT22;682;52.502;13.488;2023-04-07T12:28:32;8.40;1.00
1377;DHT22;682;52.502;13.488;2023-04-07T12:30:59;8.40;1.00
1377;DHT22;682;52.502;13.488;2023-04-07T12:33:26;8.40;1.00
1377;DHT22;682;52.502;13.488;2023-04-07T12:35:55;8.50;1.00
1377;DHT22;682;52.502;13.488;2023-04-07T12:38:28;8.50;1.00
1377;DHT22;682;52.502;13.488;2023-04-07T12:40:55;8.50;1.00
1377;DHT22;682;52.502;13.488;2023-04-07T12:43:29;8.50;1.00
1377;DHT22;682;52.502;13.488;2023-04-07T12:45:56;8.50;1.00
1377;DHT22;682;52.502;13.488;2023-04-07T12:48:24;8.50;1.00
1377;DHT22;682;52.502;13.488;2023-04-07T12:50:54;8.70;1.00
1377;DHT22;682;52.502;13.488;2023-04-07T12:53:21;8.70;1.00
1377;DHT22;682;52.502;13.488;2023-04-07T12:55:48;8.80;1.00
1377;DHT22;682;52.502;13.488;2023-04-07T12:58:15;8.90;1.00
1377;DHT22;682;52.502;13.488;2023-04-07T13:00:45;8.80;1.00
1377;DHT22;682;52.502;13.488;2023-04-07T13:03:13;8.90;1.00
1377;DHT22;682;52.502;13.488;2023-04-07T13:05:40;9.10;1.00
1377;DHT22;682;52.502;13.488;2023-04-07T13:08:07;9.10;1.00
1377;DHT22;682;52.502;13.488;2023-04-07T13:10:35;9.20;1.00
1377;DHT22;682;52.502;13.488;2023-04-07T13:13:02;9.20;1.00
1377;DHT22;682;52.502;13.488;2023-04-07T13:15:29;9.20;1.00
1377;DHT22;682;52.502;13.488;2023-04-07T13:17:58;9.10;1.00
1377;DHT22;682;52.502;13.488;2023-04-07T13:20:32;8.90;1.00
1377;DHT22;682;52.502;13.488;2023-04-07T13:23:17;8.80;1.00
1377;DHT22;682;52.502;13.488;2023-04-07T13:25:48;8.70;1.00
1377;DHT22;682;52.502;13.488;2023-04-07T13:28:18;8.60;1.00
1377;DHT22;682;52.502;13.488;2023-04-07T13:30:45;8.70;1.00
1377;DHT22;682;52.502;13.488;2023-04-07T13:33:14;8.60;1.00
1377;DHT22;682;52.502;13.488;2023-04-07T13:35:41;8.60;1.00
1377;DHT22;682;52.502;13.488;2023-04-07T13:38:08;8.60;1.00
1377;DHT22;682;52.502;13.488;2023-04-07T13:40:36;8.50;1.00
1377;DHT22;682;52.502;13.488;2023-04-07T13:43:03;8.50;1.00
1377;DHT22;682;52.502;13.488;2023-04-07T13:45:32;8.50;1.00
1377;DHT22;682;52.502;13.488;2023-04-07T13:47:59;8.50;1.00
1377;DHT22;682;52.502;13.488;2023-04-07T13:50:28;8.60;1.00
1377;DHT22;682;52.502;13.488;2023-04-07T13:52:55;8.60;1.00
1377;DHT22;682;52.502;13.488;2023-04-07T13:55:22;8.70;1.00
1377;DHT22;682;52.502;13.488;2023-04-07T13:57:50;8.60;1.00
1377;DHT22;682;52.502;13.488;2023-04-07T14:00:17;8.70;1.00
1377;DHT22;682;52.502;13.488;2023-04-07T14:02:45;8.70;1.00
1377;DHT22;682;52.502;13.488;2023-04-07T14:05:12;8.70;1.00
1377;DHT22;682;52.502;13.488;2023-04-07T14:07:41;8.70;1.00
1377;DHT22;682;52.502;13.488;2023-04-07T14:10:08;8.80;1.00
1377;DHT22;682;52.502;13.488;2023-04-07T14:12:35;8.70;1.00
1377;DHT22;682;52.502;13.488;2023-04-07T14:15:03;8.60;1.00
1377;DHT22;682;52.502;13.488;2023-04-07T14:17:30;8.70;1.00
1377;DHT22;682;52.502;13.488;2023-04-07T14:19:59;8.60;1.00
1377;DHT22;682;52.502;13.488;2023-04-07T14:22:26;8.70;1.00
1377;DHT22;682;52.502;13.488;2023-04-07T14:24:54;8.70;1.00
1377;DHT22;682;52.502;13.488;2023-04-07T14:27:22;8.70;1.00
1377;DHT22;682;52.502;13.488;2023-04-07T14:29:49;8.90;1.00
1377;DHT22;682;52.502;13.488;2023-04-07T14:32:17;8.80;1.00
1377;DHT22;682;52.502;13.488;2023-04-07T14:34:45;8.80;1.00
1377;DHT22;682;52.502;13.488;2023-04-07T14:37:12;8.80;1.00
1377;DHT22;682;52.502;13.488;2023-04-07T14:39:40;8.70;1.00
1377;DHT22;682;52.502;13.488;2023-04-07T14:42:10;8.60;1.00
1377;DHT22;682;52.502;13.488;2023-04-07T14:44:37;8.60;1.00
1377;DHT22;682;52.502;13.488;2023-04-07T14:47:05;8.60;1.00
1377;DHT22;682;52.502;13.488;2023-04-07T14:49:34;8.60;1.00
1377;DHT22;682;52.502;13.488;2023-04-07T14:52:02;8.50;1.00
1377;DHT22;682;52.502;13.488;2023-04-07T14:54:29;8.50;1.00
1377;DHT22;682;52.502;13.488;2023-04-07T14:56:56;8.50;1.00
1377;DHT22;682;52.502;13.488;2023-04-07T14:59:25;8.50;1.00
1377;DHT22;682;52.502;13.488;2023-04-07T15:01:52;8.50;1.00
1377;DHT22;682;52.502;13.488;2023-04-07T15:04:19;8.50;1.00
1377;DHT22;682;52.502;13.488;2023-04-07T15:06:46;8.40;1.00
1377;DHT22;682;52.502;13.488;2023-04-07T15:09:14;8.40;1.00
1377;DHT22;682;52.502;13.488;2023-04-07T15:11:41;8.30;1.00
1377;DHT22;682;52.502;13.488;2023-04-07T15:14:08;8.20;1.00
1377;DHT22;682;52.502;13.488;2023-04-07T15:16:36;8.10;1.00
1377;DHT22;682;52.502;13.488;2023-04-07T15:19:03;8.00;1.00
1377;DHT22;682;52.502;13.488;2023-04-07T15:21:30;7.80;1.00
1377;DHT22;682;52.502;13.488;2023-04-07T15:23:57;7.90;1.00
1377;DHT22;682;52.502;13.488;2023-04-07T15:26:24;7.90;1.00
1377;DHT22;682;52.502;13.488;2023-04-07T15:28:51;7.80;1.00
1377;DHT22;682;52.502;13.488;2023-04-07T15:31:18;7.80;1.00
1377;DHT22;682;52.502;13.488;2023-04-07T15:33:48;7.80;1.00
1377;DHT22;682;52.502;13.488;2023-04-07T15:36:16;7.80;1.00
1377;DHT22;682;52.502;13.488;2023-04-07T15:38:43;7.70;1.00
1377;DHT22;682;52.502;13.488;2023-04-07T15:41:13;7.70;1.00
1377;DHT22;682;52.502;13.488;2023-04-07T15:43:41;7.60;1.00
1377;DHT22;682;52.502;13.488;2023-04-07T15:46:08;7.60;1.00
1377;DHT22;682;52.502;13.488;2023-04-07T15:48:35;7.60;1.00
1377;DHT22;682;52.502;13.488;2023-04-07T15:51:04;7.60;1.00
1377;DHT22;682;52.502;13.488;2023-04-07T15:53:31;7.50;1.00
1377;DHT22;682;52.502;13.488;2023-04-07T15:55:58;7.50;1.00
1377;DHT22;682;52.502;13.488;2023-04-07T15:58:26;7.40;1.00
1377;DHT22;682;52.502;13.488;2023-04-07T16:00:53;7.50;1.00
1377;DHT22;682;52.502;13.488;2023-04-07T16:03:20;7.50;1.00
1377;DHT22;682;52.502;13.488;2023-04-07T16:05:47;7.40;1.00
1377;DHT22;682;52.502;13.488;2023-04-07T16:08:17;7.40;1.00
1377;DHT22;682;52.502;13.488;2023-04-07T16:10:44;7.40;1.00
1377;DHT22;682;52.502;13.488;2023-04-07T16:13:12;7.40;1.00
1377;DHT22;682;52.502;13.488;2023-04-07T16:15:40;7.40;1.00
1377;DHT22;682;52.502;13.488;2023-04-07T16:18:08;7.40;1.00
1377;DHT22;682;52.502;13.488;2023-04-07T16:20:36;7.40;1.00
1377;DHT22;682;52.502;13.488;2023-04-07T16:23:03;7.40;1.00
1377;DHT22;682;52.502;13.488;2023-04-07T16:25:32;7.40;1.00
1377;DHT22;682;52.502;13.488;2023-04-07T16:27:59;7.30;1.00
1377;DHT22;682;52.502;13.488;2023-04-07T16:30:26;7.40;1.00
1377;DHT22;682;52.502;13.488;2023-04-07T16:32:53;7.40;1.00
1377;DHT22;682;52.502;13.488;2023-04-07T16:35:20;7.30;1.00
1377;DHT22;682;52.502;13.488;2023-04-07T16:37:47;7.30;1.00
1377;DHT22;682;52.502;13.488;2023-04-07T16:40:20;7.30;1.00
1377;DHT22;682;52.502;13.488;2023-04-07T16:42:48;7.40;1.00
1377;DHT22;682;52.502;13.488;2023-04-07T16:45:15;7.30;1.00
1377;DHT22;682;52.502;13.488;2023-04-07T16:47:42;7.30;1.00
1377;DHT22;682;52.502;13.488;2023-04-07T16:50:10;7.30;1.00
1377;DHT22;682;52.502;13.488;2023-04-07T16:52:36;7.30;1.00
1377;DHT22;682;52.502;13.488;2023-04-07T16:55:05;7.30;1.00